Etusivu
METAR-TAF:

METAR-TAF

Lentoasemat :

Nancy, Ranska

Leveyspiiri: 48-35N, Pituuspiiri: 005-58E, korkeus merenpinnasta: 336 m

Tämänhetkinen sää

Tämä raportti tehtiin 28 minuuttia sitten, kello 00.00 UTC
Tuuli 3 kn idästä
Lämpötila 3°C
Kosteus 93%
Ilmanpaine 1007 hPa
Näkyvyys: 6000 m
Muutamia pilviä 1600 ft:n korkeudessa
Hajonneita pilviä 3800 ft:n korkeudessa
Pilvistä 4800 ft:n korkeudessa
heikkoa sadetta, tihkusadetta

METAR: LFSO 210000Z AUTO 09003KT 6000 -RADZ FEW016 BKN038 OVC048 03/02 Q1007

Aika: 01:28 (00:28 UTC)

Sääennuste

Tämä raportti tehtiin 4 tuntia ja 28 minuuttia sitten, kello 20.00 UTC
Ennuste voimassa 20. päivästä klo 21 UTC - 21. päivään klo 21 UTC
Tuuli 5 kn idästä/kaakosta
Näkyvyys: 8000 m
Hajonneita pilviä 3000 ft:n korkeudessa
Pilvistä 6000 ft:n korkeudessa
heikkoa sadetta
Tulossa
21. päivästä klo 05 UTC - 21. päivään klo 07 UTC
Tuuli 5 kn koillisesta

TAF: LFSO 202000Z 2021/2121 12005KT 8000 -RA BKN030 OVC060 BECMG 2105/2107 05005KT NSW

Säähavainnot ja -ennusteet yli 4000 lentoasemalta (METAR- ja TAF-raportit).

Käytössä olevat sääasemat on merkitty karttaan keltaisilla ja punaisilla pisteillä.

Aseta hiiri pisteen päälle nähdäksesi sääaseman nimen.

Klikkaa sitten nähdäksesi säähavainnot ja -ennusteet.

Kartan vaihtaminen: klikkaa mustalla rastilla varustettuja vihreitä pisteitä, niin voit zoomata sisään; viivalla varustettua vihreää pistettä, niin voit zoomata ulos tai vihreitä nuolia, niin pääset viereisille kartoille.


METAR-TAF: